Current Conditions
Clear
Conditions



Pressure
29.99 (inHG) - 1015.62 (mb)
Visibility

10.0 (mimiles) - 16.1 (km)
   Temperature
75  °F
24°C
70  °F
Dewpoint
83  %
 Humidity
   Wind Speed
9  mph
8  kts
14  km/h
4.0  m/s
   Wind Direction
 270°
Due West
   Airport Data
KMYR
Location Myrtle Beach International 2 mi (3.22 km)
Metar :KMYR 271056Z 27008KT 10SM CLR 24/21 A2999 RMK AO2 SLP154 T02440211
Mon 27th May 05:56 am
   Raw Metar Info
Raw METAR is the most common format in the world for the transmission of observational weather data. It is highly standardized through the International Civil Aviation Organization (ICAO), which allows it to be understood throughout most of the world.
   API Info
Data Provided by
https://www.checkwx.com/weather/KMYR
   © Info
CSS/SVG/PHP scripts were developed by weather34.com for use in the weather34 template © 2015-2019

Guide Info provided by Metar-Wikipedia